Colombo Express — DIHC — position and weather

sailwx.info

Track history (hours):
 
Tides and Currents Weather Stations Pressure Air Temp Water Temp Dewpoint Dewpoint Depression Visibility Wind Speed Wind Dir Waves Ship Positions

Colombo Express

Last reported at 2016-Jul-01 18:00 UTC. Time now 2016-Jul-02 03:59 UTC.
Position N 40°00' W 056°06'.

Length 335.5 m; beam 42.8 m; draft 14.6 m.

Type: Ship. MMSI: 211433000.

Wind from 190 at 20 knots

Waves 1.5 meters (5 feet), 7 second period

Barometer 1020.8 mb
Air temperature 25.3 ° C
Visibility: greater than 5.4 NM
Dewpoint 17.5 ° C
Water temperature 24.0 ° C

Date/timePositionNaut miles runAvg speedWind from/ knotsBaromVisibWave heightAir tempDewpointWater temp
2016-Jul-01 18:00N 40°00' W 056°06'20617.2 190 / 201020.8 5.4 1.525.317.524.0
2016-Jul-01 06:00N 39°24' W 060°30'74416.7 220 / 121020.2 5.4 23.721.024.0
2016-Jun-29 09:33N 36°55' W 075°57'1312.8
2016-Jun-29 08:33N 36°60' W 076°12'8 8.2
2016-Jun-29 07:33N 36°55' W 076°20'1 0.1
2016-Jun-28 21:17N 36°54' W 076°20'0 0.0
2016-Jun-28 17:17N 36°54' W 076°20'0 0.0
2016-Jun-28 12:30N 36°54' W 076°20'0 0.2
2016-Jun-28 11:28N 36°55' W 076°20'1 0.8
2016-Jun-28 10:27N 36°55' W 076°20'8 7.4
2016-Jun-28 09:21N 36°60' W 076°12'352 7.3
2016-Jun-26 09:17N 32°05' W 080°05'6 8.0
2016-Jun-26 08:34N 32°02' W 080°11'8 8.1
2016-Jun-26 07:33N 31°57' W 080°19'8 8.2
2016-Jun-26 06:34N 31°56' W 080°28'10 9.5
2016-Jun-26 05:32N 31°56' W 080°40'1212.1
2016-Jun-26 04:33N 32°02' W 080°51'9 9.2
2016-Jun-26 03:33N 32°05' W 081°01'5 5.4
2016-Jun-26 02:33N 32°07' W 081°08'1 1.0
2016-Jun-26 01:29N 32°08' W 081°08'0 0.0
2016-Jun-26 00:31N 32°08' W 081°08'0 0.0
2016-Jun-25 23:31N 32°08' W 081°08'0 0.0
2016-Jun-25 22:31N 32°08' W 081°08'0 0.0
2016-Jun-25 21:31N 32°08' W 081°08'0 0.0
2016-Jun-25 20:33N 32°08' W 081°08'0 0.0
2016-Jun-25 19:29N 32°08' W 081°08'0 0.0
2016-Jun-25 18:29N 32°08' W 081°08'0 0.0
2016-Jun-25 17:29N 32°08' W 081°08'0 0.0
2016-Jun-25 16:29N 32°08' W 081°08'0 0.0
2016-Jun-25 15:29N 32°08' W 081°08'0 0.0
2016-Jun-25 14:29N 32°08' W 081°08'0 0.0
2016-Jun-25 13:29N 32°08' W 081°08'0 0.0
2016-Jun-25 12:29N 32°08' W 081°08'0 0.0
2016-Jun-25 11:29N 32°08' W 081°08'0 0.0
2016-Jun-25 10:31N 32°08' W 081°08'0 0.0
2016-Jun-25 09:31N 32°08' W 081°08'0 0.0
2016-Jun-25 08:25N 32°08' W 081°08'0 0.0
2016-Jun-25 07:31N 32°08' W 081°08'0 0.0
2016-Jun-25 06:33N 32°08' W 081°08'0 0.0
2016-Jun-25 05:29N 32°08' W 081°08'0 0.0
2016-Jun-25 04:32N 32°08' W 081°08'0 0.3
2016-Jun-25 03:33N 32°08' W 081°08'5 4.8
2016-Jun-25 02:33N 32°05' W 081°04'9 9.4
2016-Jun-25 01:33N 32°02' W 080°53'1211.7
2016-Jun-25 00:33N 31°57' W 080°41'8 8.1
2016-Jun-24 23:33N 31°56' W 080°31'9 9.5
2016-Jun-24 22:33N 31°58' W 080°20'9 9.4
2016-Jun-24 21:33N 32°01' W 080°10'10 9.9
2016-Jun-24 20:33N 32°04' W 079°59'10 9.6
2016-Jun-24 19:33N 32°08' W 079°48'10213.6
2016-Jun-24 12:00N 32°54' W 078°00'8113.5 240 / 251016.510.8 2.528.024.827.0
2016-Jun-24 06:00N 33°48' W 076°48'3614.4 240 / 221016.9 5.4 27.023.327.0
2016-Jun-24 03:29N 34°12' W 076°16'1513.4
2016-Jun-24 02:19N 34°22' W 076°02'1113.4
2016-Jun-24 01:29N 34°30' W 075°51'1413.1
2016-Jun-24 00:27N 34°38' W 075°38'817.2
2016-Jun-24 00:00N 34°42' W 075°30'510.8 250 / 201015.0 5.4 2.027.024.126.0
2016-Jun-23 23:33N 34°46' W 075°27'1514.7
2016-Jun-23 22:33N 34°57' W 075°15'25715.5
2016-Jun-23 06:00N 39°06' W 073°54'1228.6 250 / 151013.6 5.4 21.216.619.0
2016-Jun-23 05:33N 39°18' W 073°55'2020.3
2016-Jun-23 04:33N 39°38' W 073°50'2020.4
2016-Jun-23 03:34N 39°59' W 073°49'3415.3
2016-Jun-23 01:21N 40°31' W 074°01'810.3
2016-Jun-23 00:33N 40°39' W 074°03'1 1.4
2016-Jun-22 23:31N 40°40' W 074°05'0 0.0
2016-Jun-22 21:29N 40°40' W 074°05'0 0.0
2016-Jun-22 20:30N 40°40' W 074°05'0 0.0
2016-Jun-22 19:14N 40°40' W 074°05'0 0.0
2016-Jun-22 18:14N 40°40' W 074°05'0 0.0
2016-Jun-22 17:33N 40°40' W 074°05'0 0.0
2016-Jun-22 16:30N 40°40' W 074°05'0 0.0
2016-Jun-22 15:25N 40°40' W 074°05'0 0.0
2016-Jun-22 14:33N 40°40' W 074°05'0 0.0
2016-Jun-22 13:29N 40°40' W 074°05'0 0.0
2016-Jun-22 12:33N 40°40' W 074°05'0 0.0
2016-Jun-22 11:32N 40°40' W 074°05'0 0.0
2016-Jun-22 10:33N 40°40' W 074°05'0 0.0
2016-Jun-22 09:32N 40°40' W 074°05'0 0.0
2016-Jun-22 08:32N 40°40' W 074°05'0 0.0
2016-Jun-22 07:29N 40°40' W 074°05'0 0.0
2016-Jun-22 06:27N 40°40' W 074°05'0 0.0
2016-Jun-22 05:33N 40°40' W 074°05'0 0.0
2016-Jun-22 04:22N 40°40' W 074°05'0 0.0
2016-Jun-22 03:33N 40°40' W 074°05'0 0.0
2016-Jun-22 02:32N 40°40' W 074°05'0 0.0
2016-Jun-22 01:29N 40°40' W 074°05'0 0.0
2016-Jun-22 00:29N 40°40' W 074°05'0 0.0
2016-Jun-21 23:32N 40°40' W 074°05'0 0.0
2016-Jun-21 22:32N 40°40' W 074°05'0 0.0
2016-Jun-21 21:33N 40°40' W 074°05'0 0.0
2016-Jun-21 20:33N 40°40' W 074°05'0 0.0
2016-Jun-21 19:31N 40°40' W 074°05'0 0.0
2016-Jun-21 18:27N 40°40' W 074°05'  
Track history (hours):
 
Tides and Currents Weather Stations Pressure Air Temp Water Temp Dewpoint Dewpoint Depression Visibility Wind Speed Wind Dir Waves Ship Positions

Colombo Express

Last reported at 2016-Jul-01 18:00 UTC. Time now 2016-Jul-02 03:59 UTC.
Position N 40°00' W 056°06'.

Length 335.5 m; beam 42.8 m; draft 14.6 m.

Type: Ship. MMSI: 211433000.

Wind from 190 at 20 knots

Waves 1.5 meters (5 feet), 7 second period

Barometer 1020.8 mb
Air temperature 25.3 ° C
Visibility: greater than 5.4 NM
Dewpoint 17.5 ° C
Water temperature 24.0 ° C

Date/timePositionNaut miles runAvg speedWind from/ knotsBaromVisibWave heightAir tempDewpointWater temp
2016-Jul-01 18:00N 40°00' W 056°06'20617.2 190 / 201020.8 5.4 1.525.317.524.0
2016-Jul-01 06:00N 39°24' W 060°30'74416.7 220 / 121020.2 5.4 23.721.024.0
2016-Jun-29 09:33N 36°55' W 075°57'1312.8
2016-Jun-29 08:33N 36°60' W 076°12'8 8.2
2016-Jun-29 07:33N 36°55' W 076°20'1 0.1
2016-Jun-28 21:17N 36°54' W 076°20'0 0.0
2016-Jun-28 17:17N 36°54' W 076°20'0 0.0
2016-Jun-28 12:30N 36°54' W 076°20'0 0.2
2016-Jun-28 11:28N 36°55' W 076°20'1 0.8
2016-Jun-28 10:27N 36°55' W 076°20'8 7.4
2016-Jun-28 09:21N 36°60' W 076°12'352 7.3
2016-Jun-26 09:17N 32°05' W 080°05'6 8.0
2016-Jun-26 08:34N 32°02' W 080°11'8 8.1
2016-Jun-26 07:33N 31°57' W 080°19'8 8.2
2016-Jun-26 06:34N 31°56' W 080°28'10 9.5
2016-Jun-26 05:32N 31°56' W 080°40'1212.1
2016-Jun-26 04:33N 32°02' W 080°51'9 9.2
2016-Jun-26 03:33N 32°05' W 081°01'5 5.4
2016-Jun-26 02:33N 32°07' W 081°08'1 1.0
2016-Jun-26 01:29N 32°08' W 081°08'0 0.0
2016-Jun-26 00:31N 32°08' W 081°08'0 0.0
2016-Jun-25 23:31N 32°08' W 081°08'0 0.0
2016-Jun-25 22:31N 32°08' W 081°08'0 0.0
2016-Jun-25 21:31N 32°08' W 081°08'0 0.0
2016-Jun-25 20:33N 32°08' W 081°08'0 0.0
2016-Jun-25 19:29N 32°08' W 081°08'0 0.0
2016-Jun-25 18:29N 32°08' W 081°08'0 0.0
2016-Jun-25 17:29N 32°08' W 081°08'0 0.0
2016-Jun-25 16:29N 32°08' W 081°08'0 0.0
2016-Jun-25 15:29N 32°08' W 081°08'0 0.0
2016-Jun-25 14:29N 32°08' W 081°08'0 0.0
2016-Jun-25 13:29N 32°08' W 081°08'0 0.0
2016-Jun-25 12:29N 32°08' W 081°08'0 0.0
2016-Jun-25 11:29N 32°08' W 081°08'0 0.0
2016-Jun-25 10:31N 32°08' W 081°08'0 0.0
2016-Jun-25 09:31N 32°08' W 081°08'0 0.0
2016-Jun-25 08:25N 32°08' W 081°08'0 0.0
2016-Jun-25 07:31N 32°08' W 081°08'0 0.0
2016-Jun-25 06:33N 32°08' W 081°08'0 0.0
2016-Jun-25 05:29N 32°08' W 081°08'0 0.0
2016-Jun-25 04:32N 32°08' W 081°08'0 0.3
2016-Jun-25 03:33N 32°08' W 081°08'5 4.8
2016-Jun-25 02:33N 32°05' W 081°04'9 9.4
2016-Jun-25 01:33N 32°02' W 080°53'1211.7
2016-Jun-25 00:33N 31°57' W 080°41'8 8.1
2016-Jun-24 23:33N 31°56' W 080°31'9 9.5
2016-Jun-24 22:33N 31°58' W 080°20'9 9.4
2016-Jun-24 21:33N 32°01' W 080°10'10 9.9
2016-Jun-24 20:33N 32°04' W 079°59'10 9.6
2016-Jun-24 19:33N 32°08' W 079°48'10213.6
2016-Jun-24 12:00N 32°54' W 078°00'8113.5 240 / 251016.510.8 2.528.024.827.0
2016-Jun-24 06:00N 33°48' W 076°48'3614.4 240 / 221016.9 5.4 27.023.327.0
2016-Jun-24 03:29N 34°12' W 076°16'1513.4
2016-Jun-24 02:19N 34°22' W 076°02'1113.4
2016-Jun-24 01:29N 34°30' W 075°51'1413.1
2016-Jun-24 00:27N 34°38' W 075°38'817.2
2016-Jun-24 00:00N 34°42' W 075°30'510.8 250 / 201015.0 5.4 2.027.024.126.0
2016-Jun-23 23:33N 34°46' W 075°27'1514.7
2016-Jun-23 22:33N 34°57' W 075°15'25715.5
2016-Jun-23 06:00N 39°06' W 073°54'1228.6 250 / 151013.6 5.4 21.216.619.0
2016-Jun-23 05:33N 39°18' W 073°55'2020.3
2016-Jun-23 04:33N 39°38' W 073°50'2020.4
2016-Jun-23 03:34N 39°59' W 073°49'3415.3
2016-Jun-23 01:21N 40°31' W 074°01'810.3
2016-Jun-23 00:33N 40°39' W 074°03'1 1.4
2016-Jun-22 23:31N 40°40' W 074°05'0 0.0
2016-Jun-22 21:29N 40°40' W 074°05'0 0.0
2016-Jun-22 20:30N 40°40' W 074°05'0 0.0
2016-Jun-22 19:14N 40°40' W 074°05'0 0.0
2016-Jun-22 18:14N 40°40' W 074°05'0 0.0
2016-Jun-22 17:33N 40°40' W 074°05'0 0.0
2016-Jun-22 16:30N 40°40' W 074°05'0 0.0
2016-Jun-22 15:25N 40°40' W 074°05'0 0.0
2016-Jun-22 14:33N 40°40' W 074°05'0 0.0
2016-Jun-22 13:29N 40°40' W 074°05'0 0.0
2016-Jun-22 12:33N 40°40' W 074°05'0 0.0
2016-Jun-22 11:32N 40°40' W 074°05'0 0.0
2016-Jun-22 10:33N 40°40' W 074°05'0 0.0
2016-Jun-22 09:32N 40°40' W 074°05'0 0.0
2016-Jun-22 08:32N 40°40' W 074°05'0 0.0
2016-Jun-22 07:29N 40°40' W 074°05'0 0.0
2016-Jun-22 06:27N 40°40' W 074°05'0 0.0
2016-Jun-22 05:33N 40°40' W 074°05'0 0.0
2016-Jun-22 04:22N 40°40' W 074°05'0 0.0
2016-Jun-22 03:33N 40°40' W 074°05'0 0.0
2016-Jun-22 02:32N 40°40' W 074°05'0 0.0
2016-Jun-22 01:29N 40°40' W 074°05'0 0.0
2016-Jun-22 00:29N 40°40' W 074°05'0 0.0
2016-Jun-21 23:32N 40°40' W 074°05'0 0.0
2016-Jun-21 22:32N 40°40' W 074°05'0 0.0
2016-Jun-21 21:33N 40°40' W 074°05'0 0.0
2016-Jun-21 20:33N 40°40' W 074°05'0 0.0
2016-Jun-21 19:31N 40°40' W 074°05'0 0.0
2016-Jun-21 18:27N 40°40' W 074°05'  

Dump ship's entire track history